sensor_id;sensor_type;location;lat;lon;timestamp;P1;durP1;ratioP1;P2;durP2;ratioP2
77828;SDS011;67019;51.034;3.728;2023-09-12T00:02:23;50.50;;;30.15;;
77828;SDS011;67019;51.034;3.728;2023-09-12T00:04:50;51.15;;;29.95;;
77828;SDS011;67019;51.034;3.728;2023-09-12T00:07:18;46.35;;;28.90;;
77828;SDS011;67019;51.034;3.728;2023-09-12T00:09:46;56.18;;;30.43;;
77828;SDS011;67019;51.034;3.728;2023-09-12T00:12:14;53.28;;;30.82;;
77828;SDS011;67019;51.034;3.728;2023-09-12T00:14:44;54.55;;;31.33;;
77828;SDS011;67019;51.034;3.728;2023-09-12T00:17:11;52.67;;;30.23;;
77828;SDS011;67019;51.034;3.728;2023-09-12T00:19:39;58.92;;;32.65;;
77828;SDS011;67019;51.034;3.728;2023-09-12T00:22:07;56.73;;;31.85;;
77828;SDS011;67019;51.034;3.728;2023-09-12T00:24:34;48.48;;;30.80;;
77828;SDS011;67019;51.034;3.728;2023-09-12T00:27:03;50.15;;;29.57;;
77828;SDS011;67019;51.034;3.728;2023-09-12T00:29:31;50.28;;;30.60;;
77828;SDS011;67019;51.034;3.728;2023-09-12T00:32:03;48.83;;;29.37;;
77828;SDS011;67019;51.034;3.728;2023-09-12T00:34:31;50.15;;;32.17;;
77828;SDS011;67019;51.034;3.728;2023-09-12T00:36:58;54.53;;;29.52;;
77828;SDS011;67019;51.034;3.728;2023-09-12T00:39:26;54.50;;;29.25;;
77828;SDS011;67019;51.034;3.728;2023-09-12T00:41:53;59.40;;;31.27;;
77828;SDS011;67019;51.034;3.728;2023-09-12T00:44:21;49.20;;;29.27;;
77828;SDS011;67019;51.034;3.728;2023-09-12T00:46:49;48.78;;;28.17;;
77828;SDS011;67019;51.034;3.728;2023-09-12T00:49:18;54.55;;;32.78;;
77828;SDS011;67019;51.034;3.728;2023-09-12T00:51:48;52.50;;;30.40;;
77828;SDS011;67019;51.034;3.728;2023-09-12T00:54:17;47.45;;;28.87;;
77828;SDS011;67019;51.034;3.728;2023-09-12T00:56:45;55.80;;;28.77;;
77828;SDS011;67019;51.034;3.728;2023-09-12T00:59:13;51.00;;;29.37;;
77828;SDS011;67019;51.034;3.728;2023-09-12T01:01:43;50.20;;;29.35;;
77828;SDS011;67019;51.034;3.728;2023-09-12T01:04:11;44.38;;;27.48;;
77828;SDS011;67019;51.034;3.728;2023-09-12T01:06:39;48.00;;;27.58;;
77828;SDS011;67019;51.034;3.728;2023-09-12T01:09:07;42.25;;;27.00;;
77828;SDS011;67019;51.034;3.728;2023-09-12T01:11:35;47.15;;;25.80;;
77828;SDS011;67019;51.034;3.728;2023-09-12T01:14:02;51.55;;;26.85;;
77828;SDS011;67019;51.034;3.728;2023-09-12T01:16:30;51.75;;;26.70;;
77828;SDS011;67019;51.034;3.728;2023-09-12T01:18:58;44.95;;;25.75;;
77828;SDS011;67019;51.034;3.728;2023-09-12T01:27:21;45.33;;;26.45;;
77828;SDS011;67019;51.034;3.728;2023-09-12T01:29:56;40.28;;;25.10;;
77828;SDS011;67019;51.034;3.728;2023-09-12T01:32:25;41.00;;;26.17;;
77828;SDS011;67019;51.034;3.728;2023-09-12T01:34:55;48.92;;;28.87;;
77828;SDS011;67019;51.034;3.728;2023-09-12T01:37:23;51.15;;;28.83;;
77828;SDS011;67019;51.034;3.728;2023-09-12T01:39:51;49.65;;;28.98;;
77828;SDS011;67019;51.034;3.728;2023-09-12T01:42:20;43.75;;;26.12;;
77828;SDS011;67019;51.034;3.728;2023-09-12T01:44:50;47.03;;;27.70;;
77828;SDS011;67019;51.034;3.728;2023-09-12T01:47:21;47.38;;;28.65;;
77828;SDS011;67019;51.034;3.728;2023-09-12T01:49:51;53.58;;;27.80;;
77828;SDS011;67019;51.034;3.728;2023-09-12T01:52:21;49.48;;;28.95;;
77828;SDS011;67019;51.034;3.728;2023-09-12T01:54:51;53.58;;;29.45;;
77828;SDS011;67019;51.034;3.728;2023-09-12T01:57:19;40.92;;;26.17;;
77828;SDS011;67019;51.034;3.728;2023-09-12T01:59:48;56.13;;;29.37;;
77828;SDS011;67019;51.034;3.728;2023-09-12T02:02:16;42.10;;;25.48;;
77828;SDS011;67019;51.034;3.728;2023-09-12T02:07:39;42.55;;;25.90;;
77828;SDS011;67019;51.034;3.728;2023-09-12T02:10:04;45.40;;;26.75;;
77828;SDS011;67019;51.034;3.728;2023-09-12T02:12:34;43.40;;;28.38;;
77828;SDS011;67019;51.034;3.728;2023-09-12T02:15:02;50.10;;;27.98;;
77828;SDS011;67019;51.034;3.728;2023-09-12T02:17:31;48.68;;;26.10;;
77828;SDS011;67019;51.034;3.728;2023-09-12T02:19:58;45.10;;;26.90;;
77828;SDS011;67019;51.034;3.728;2023-09-12T02:22:26;42.55;;;25.97;;
77828;SDS011;67019;51.034;3.728;2023-09-12T02:24:54;42.00;;;26.48;;
77828;SDS011;67019;51.034;3.728;2023-09-12T02:27:23;42.08;;;25.55;;
77828;SDS011;67019;51.034;3.728;2023-09-12T02:29:50;42.55;;;25.52;;
77828;SDS011;67019;51.034;3.728;2023-09-12T02:32:18;44.10;;;26.90;;
77828;SDS011;67019;51.034;3.728;2023-09-12T02:34:45;45.20;;;26.42;;
77828;SDS011;67019;51.034;3.728;2023-09-12T02:37:13;45.92;;;25.05;;
77828;SDS011;67019;51.034;3.728;2023-09-12T02:39:41;40.58;;;26.05;;
77828;SDS011;67019;51.034;3.728;2023-09-12T02:42:09;46.28;;;27.60;;
77828;SDS011;67019;51.034;3.728;2023-09-12T02:44:37;48.55;;;26.27;;
77828;SDS011;67019;51.034;3.728;2023-09-12T02:47:08;46.20;;;28.52;;
77828;SDS011;67019;51.034;3.728;2023-09-12T02:49:38;46.15;;;28.23;;
77828;SDS011;67019;51.034;3.728;2023-09-12T02:52:07;51.77;;;29.67;;
77828;SDS011;67019;51.034;3.728;2023-09-12T02:54:35;46.58;;;27.62;;
77828;SDS011;67019;51.034;3.728;2023-09-12T02:57:03;48.48;;;27.35;;
77828;SDS011;67019;51.034;3.728;2023-09-12T02:59:31;42.35;;;27.20;;
77828;SDS011;67019;51.034;3.728;2023-09-12T03:02:00;47.98;;;28.73;;
77828;SDS011;67019;51.034;3.728;2023-09-12T03:04:29;53.95;;;27.70;;
77828;SDS011;67019;51.034;3.728;2023-09-12T03:06:57;49.10;;;29.50;;
77828;SDS011;67019;51.034;3.728;2023-09-12T03:09:25;45.25;;;27.75;;
77828;SDS011;67019;51.034;3.728;2023-09-12T03:11:54;42.17;;;26.27;;
77828;SDS011;67019;51.034;3.728;2023-09-12T03:14:23;47.40;;;28.35;;
77828;SDS011;67019;51.034;3.728;2023-09-12T03:16:51;43.58;;;27.27;;
77828;SDS011;67019;51.034;3.728;2023-09-12T03:21:48;42.25;;;25.65;;
77828;SDS011;67019;51.034;3.728;2023-09-12T03:24:16;46.95;;;27.02;;
77828;SDS011;67019;51.034;3.728;2023-09-12T03:26:44;44.93;;;28.07;;
77828;SDS011;67019;51.034;3.728;2023-09-12T03:29:12;54.05;;;27.75;;
77828;SDS011;67019;51.034;3.728;2023-09-12T03:31:40;42.73;;;27.22;;
77828;SDS011;67019;51.034;3.728;2023-09-12T03:34:07;46.63;;;27.32;;
77828;SDS011;67019;51.034;3.728;2023-09-12T03:36:35;45.00;;;28.05;;
77828;SDS011;67019;51.034;3.728;2023-09-12T03:39:03;48.40;;;28.38;;
77828;SDS011;67019;51.034;3.728;2023-09-12T03:41:32;50.52;;;31.40;;
77828;SDS011;67019;51.034;3.728;2023-09-12T03:44:00;50.70;;;30.27;;
77828;SDS011;67019;51.034;3.728;2023-09-12T03:46:28;47.03;;;28.12;;
77828;SDS011;67019;51.034;3.728;2023-09-12T03:48:55;45.70;;;27.77;;
77828;SDS011;67019;51.034;3.728;2023-09-12T03:51:23;53.78;;;30.15;;
77828;SDS011;67019;51.034;3.728;2023-09-12T03:53:50;51.37;;;31.37;;
77828;SDS011;67019;51.034;3.728;2023-09-12T03:56:18;51.08;;;30.90;;
77828;SDS011;67019;51.034;3.728;2023-09-12T03:58:46;52.53;;;30.25;;
77828;SDS011;67019;51.034;3.728;2023-09-12T04:01:13;48.33;;;30.80;;
77828;SDS011;67019;51.034;3.728;2023-09-12T04:03:41;52.85;;;30.95;;
77828;SDS011;67019;51.034;3.728;2023-09-12T04:06:09;49.58;;;30.40;;
77828;SDS011;67019;51.034;3.728;2023-09-12T04:08:36;52.30;;;31.55;;
77828;SDS011;67019;51.034;3.728;2023-09-12T04:11:04;53.90;;;29.90;;
77828;SDS011;67019;51.034;3.728;2023-09-12T04:13:31;50.38;;;29.40;;
77828;SDS011;67019;51.034;3.728;2023-09-12T04:15:59;46.60;;;29.50;;
77828;SDS011;67019;51.034;3.728;2023-09-12T04:18:29;44.38;;;27.60;;
77828;SDS011;67019;51.034;3.728;2023-09-12T04:20:56;45.48;;;29.65;;
77828;SDS011;67019;51.034;3.728;2023-09-12T04:23:27;44.15;;;28.07;;
77828;SDS011;67019;51.034;3.728;2023-09-12T04:28:21;41.88;;;25.72;;
77828;SDS011;67019;51.034;3.728;2023-09-12T04:30:51;46.30;;;26.60;;
77828;SDS011;67019;51.034;3.728;2023-09-12T04:33:18;47.85;;;29.87;;
77828;SDS011;67019;51.034;3.728;2023-09-12T04:35:46;45.50;;;28.45;;
77828;SDS011;67019;51.034;3.728;2023-09-12T04:38:13;48.23;;;29.23;;
77828;SDS011;67019;51.034;3.728;2023-09-12T04:40:41;43.33;;;28.00;;
77828;SDS011;67019;51.034;3.728;2023-09-12T04:43:08;50.52;;;27.70;;
77828;SDS011;67019;51.034;3.728;2023-09-12T04:45:36;58.13;;;31.05;;
77828;SDS011;67019;51.034;3.728;2023-09-12T04:48:03;49.13;;;28.40;;
77828;SDS011;67019;51.034;3.728;2023-09-12T04:50:31;62.88;;;31.87;;
77828;SDS011;67019;51.034;3.728;2023-09-12T04:52:59;55.35;;;29.72;;
77828;SDS011;67019;51.034;3.728;2023-09-12T04:55:26;63.80;;;32.55;;
77828;SDS011;67019;51.034;3.728;2023-09-12T04:57:54;79.42;;;38.65;;
77828;SDS011;67019;51.034;3.728;2023-09-12T05:00:22;78.28;;;36.13;;
77828;SDS011;67019;51.034;3.728;2023-09-12T05:02:49;78.42;;;34.67;;
77828;SDS011;67019;51.034;3.728;2023-09-12T05:05:17;83.45;;;37.48;;
77828;SDS011;67019;51.034;3.728;2023-09-12T05:07:45;74.90;;;34.55;;
77828;SDS011;67019;51.034;3.728;2023-09-12T05:10:12;82.15;;;39.38;;
77828;SDS011;67019;51.034;3.728;2023-09-12T05:12:41;96.12;;;41.70;;
77828;SDS011;67019;51.034;3.728;2023-09-12T05:15:09;88.95;;;41.15;;
77828;SDS011;67019;51.034;3.728;2023-09-12T05:17:37;84.70;;;40.58;;
77828;SDS011;67019;51.034;3.728;2023-09-12T05:20:06;84.52;;;40.98;;
77828;SDS011;67019;51.034;3.728;2023-09-12T05:22:35;93.55;;;43.40;;
77828;SDS011;67019;51.034;3.728;2023-09-12T05:25:04;85.10;;;41.07;;
77828;SDS011;67019;51.034;3.728;2023-09-12T05:27:32;80.92;;;41.28;;
77828;SDS011;67019;51.034;3.728;2023-09-12T05:29:59;83.50;;;40.45;;
77828;SDS011;67019;51.034;3.728;2023-09-12T05:32:28;85.70;;;39.35;;
77828;SDS011;67019;51.034;3.728;2023-09-12T05:34:57;90.83;;;40.50;;
77828;SDS011;67019;51.034;3.728;2023-09-12T05:37:24;83.37;;;41.60;;
77828;SDS011;67019;51.034;3.728;2023-09-12T05:39:52;90.60;;;41.00;;
77828;SDS011;67019;51.034;3.728;2023-09-12T05:42:19;85.65;;;40.70;;
77828;SDS011;67019;51.034;3.728;2023-09-12T05:44:48;81.12;;;40.50;;
77828;SDS011;67019;51.034;3.728;2023-09-12T05:47:18;85.50;;;40.83;;
77828;SDS011;67019;51.034;3.728;2023-09-12T05:49:46;90.32;;;41.65;;
77828;SDS011;67019;51.034;3.728;2023-09-12T05:52:14;90.55;;;41.00;;
77828;SDS011;67019;51.034;3.728;2023-09-12T05:54:41;81.35;;;41.50;;
77828;SDS011;67019;51.034;3.728;2023-09-12T05:57:09;76.72;;;39.53;;
77828;SDS011;67019;51.034;3.728;2023-09-12T05:59:38;82.45;;;38.20;;
77828;SDS011;67019;51.034;3.728;2023-09-12T06:02:06;82.70;;;40.83;;
77828;SDS011;67019;51.034;3.728;2023-09-12T06:04:37;82.97;;;38.08;;
77828;SDS011;67019;51.034;3.728;2023-09-12T06:07:04;82.62;;;40.20;;
77828;SDS011;67019;51.034;3.728;2023-09-12T06:09:32;86.75;;;40.10;;
77828;SDS011;67019;51.034;3.728;2023-09-12T06:12:00;76.45;;;38.20;;
77828;SDS011;67019;51.034;3.728;2023-09-12T06:14:29;80.15;;;37.95;;
77828;SDS011;67019;51.034;3.728;2023-09-12T06:16:57;93.33;;;40.78;;
77828;SDS011;67019;51.034;3.728;2023-09-12T06:19:26;82.62;;;39.30;;
77828;SDS011;67019;51.034;3.728;2023-09-12T06:21:54;73.95;;;35.90;;
77828;SDS011;67019;51.034;3.728;2023-09-12T06:24:22;82.17;;;38.55;;
77828;SDS011;67019;51.034;3.728;2023-09-12T06:26:50;71.37;;;36.38;;
77828;SDS011;67019;51.034;3.728;2023-09-12T06:29:18;70.65;;;35.50;;
77828;SDS011;67019;51.034;3.728;2023-09-12T06:31:45;70.75;;;35.28;;
77828;SDS011;67019;51.034;3.728;2023-09-12T06:34:14;77.87;;;37.40;;
77828;SDS011;67019;51.034;3.728;2023-09-12T06:36:41;75.42;;;36.95;;
77828;SDS011;67019;51.034;3.728;2023-09-12T06:39:10;76.02;;;37.75;;
77828;SDS011;67019;51.034;3.728;2023-09-12T06:41:38;78.85;;;38.02;;
77828;SDS011;67019;51.034;3.728;2023-09-12T06:44:06;66.55;;;36.00;;
77828;SDS011;67019;51.034;3.728;2023-09-12T06:46:34;74.58;;;36.83;;
77828;SDS011;67019;51.034;3.728;2023-09-12T06:49:03;64.75;;;35.30;;
77828;SDS011;67019;51.034;3.728;2023-09-12T06:51:31;77.10;;;38.20;;
77828;SDS011;67019;51.034;3.728;2023-09-12T06:53:58;75.45;;;36.85;;
77828;SDS011;67019;51.034;3.728;2023-09-12T06:56:26;71.10;;;36.60;;
77828;SDS011;67019;51.034;3.728;2023-09-12T06:58:54;69.75;;;36.60;;
77828;SDS011;67019;51.034;3.728;2023-09-12T07:01:21;72.92;;;34.40;;
77828;SDS011;67019;51.034;3.728;2023-09-12T07:03:49;72.58;;;35.05;;
77828;SDS011;67019;51.034;3.728;2023-09-12T07:06:18;75.95;;;37.25;;
77828;SDS011;67019;51.034;3.728;2023-09-12T07:08:47;70.60;;;34.73;;
77828;SDS011;67019;51.034;3.728;2023-09-12T07:11:14;70.25;;;35.98;;
77828;SDS011;67019;51.034;3.728;2023-09-12T07:13:42;64.72;;;34.38;;
77828;SDS011;67019;51.034;3.728;2023-09-12T07:16:11;75.42;;;37.20;;
77828;SDS011;67019;51.034;3.728;2023-09-12T07:18:40;74.65;;;36.23;;
77828;SDS011;67019;51.034;3.728;2023-09-12T07:21:08;75.87;;;35.90;;
77828;SDS011;67019;51.034;3.728;2023-09-12T07:23:37;73.02;;;34.75;;
77828;SDS011;67019;51.034;3.728;2023-09-12T07:26:04;64.37;;;33.28;;
77828;SDS011;67019;51.034;3.728;2023-09-12T07:28:32;63.58;;;34.90;;
77828;SDS011;67019;51.034;3.728;2023-09-12T07:30:59;64.70;;;32.88;;
77828;SDS011;67019;51.034;3.728;2023-09-12T07:33:28;63.65;;;36.58;;
77828;SDS011;67019;51.034;3.728;2023-09-12T07:35:55;67.03;;;35.28;;
77828;SDS011;67019;51.034;3.728;2023-09-12T07:38:25;75.10;;;37.25;;
77828;SDS011;67019;51.034;3.728;2023-09-12T07:40:54;68.10;;;34.92;;
77828;SDS011;67019;51.034;3.728;2023-09-12T07:43:21;68.00;;;33.75;;
77828;SDS011;67019;51.034;3.728;2023-09-12T07:45:49;68.55;;;33.55;;
77828;SDS011;67019;51.034;3.728;2023-09-12T07:48:22;63.33;;;34.95;;
77828;SDS011;67019;51.034;3.728;2023-09-12T07:50:49;74.35;;;35.95;;
77828;SDS011;67019;51.034;3.728;2023-09-12T07:53:17;72.58;;;35.38;;
77828;SDS011;67019;51.034;3.728;2023-09-12T07:55:45;66.07;;;34.98;;
77828;SDS011;67019;51.034;3.728;2023-09-12T07:58:16;66.80;;;36.13;;
77828;SDS011;67019;51.034;3.728;2023-09-12T08:00:47;73.00;;;38.30;;
77828;SDS011;67019;51.034;3.728;2023-09-12T08:03:21;68.00;;;36.88;;
77828;SDS011;67019;51.034;3.728;2023-09-12T08:05:57;68.55;;;35.80;;
77828;SDS011;67019;51.034;3.728;2023-09-12T08:08:25;79.70;;;41.18;;
77828;SDS011;67019;51.034;3.728;2023-09-12T08:10:52;82.70;;;37.05;;
77828;SDS011;67019;51.034;3.728;2023-09-12T08:13:21;77.42;;;41.05;;
77828;SDS011;67019;51.034;3.728;2023-09-12T08:15:49;77.65;;;38.92;;
77828;SDS011;67019;51.034;3.728;2023-09-12T08:18:17;73.72;;;37.35;;
77828;SDS011;67019;51.034;3.728;2023-09-12T08:20:45;80.95;;;40.55;;
77828;SDS011;67019;51.034;3.728;2023-09-12T08:23:13;70.10;;;38.42;;
77828;SDS011;67019;51.034;3.728;2023-09-12T08:25:40;67.50;;;36.48;;
77828;SDS011;67019;51.034;3.728;2023-09-12T08:28:08;72.03;;;36.68;;
77828;SDS011;67019;51.034;3.728;2023-09-12T08:30:35;74.82;;;36.85;;
77828;SDS011;67019;51.034;3.728;2023-09-12T08:33:03;68.83;;;38.40;;
77828;SDS011;67019;51.034;3.728;2023-09-12T08:35:32;68.72;;;36.08;;
77828;SDS011;67019;51.034;3.728;2023-09-12T08:38:00;70.00;;;37.73;;
77828;SDS011;67019;51.034;3.728;2023-09-12T08:40:28;69.75;;;36.55;;
77828;SDS011;67019;51.034;3.728;2023-09-12T08:42:56;61.98;;;36.17;;
77828;SDS011;67019;51.034;3.728;2023-09-12T08:45:24;64.82;;;35.98;;
77828;SDS011;67019;51.034;3.728;2023-09-12T08:47:53;71.33;;;35.65;;
77828;SDS011;67019;51.034;3.728;2023-09-12T08:50:23;81.15;;;40.35;;
77828;SDS011;67019;51.034;3.728;2023-09-12T08:52:53;67.03;;;33.60;;
77828;SDS011;67019;51.034;3.728;2023-09-12T08:55:21;57.73;;;30.57;;
77828;SDS011;67019;51.034;3.728;2023-09-12T08:57:50;67.67;;;36.55;;
77828;SDS011;67019;51.034;3.728;2023-09-12T09:00:18;75.60;;;39.00;;
77828;SDS011;67019;51.034;3.728;2023-09-12T09:02:48;76.05;;;37.20;;
77828;SDS011;67019;51.034;3.728;2023-09-12T09:05:16;63.05;;;36.03;;
77828;SDS011;67019;51.034;3.728;2023-09-12T09:07:47;68.33;;;35.48;;
77828;SDS011;67019;51.034;3.728;2023-09-12T09:10:16;67.72;;;35.23;;
77828;SDS011;67019;51.034;3.728;2023-09-12T09:12:46;75.47;;;39.08;;
77828;SDS011;67019;51.034;3.728;2023-09-12T09:15:27;72.78;;;36.68;;
77828;SDS011;67019;51.034;3.728;2023-09-12T09:17:56;72.35;;;39.08;;
77828;SDS011;67019;51.034;3.728;2023-09-12T09:20:29;66.70;;;35.50;;
77828;SDS011;67019;51.034;3.728;2023-09-12T09:23:00;76.15;;;43.33;;
77828;SDS011;67019;51.034;3.728;2023-09-12T09:25:33;63.42;;;36.28;;
77828;SDS011;67019;51.034;3.728;2023-09-12T09:28:03;53.98;;;31.73;;
77828;SDS011;67019;51.034;3.728;2023-09-12T09:30:41;57.48;;;30.77;;
77828;SDS011;67019;51.034;3.728;2023-09-12T09:33:13;55.43;;;31.35;;
77828;SDS011;67019;51.034;3.728;2023-09-12T09:35:45;54.08;;;31.23;;
77828;SDS011;67019;51.034;3.728;2023-09-12T09:38:13;64.82;;;32.83;;
77828;SDS011;67019;51.034;3.728;2023-09-12T09:40:43;64.67;;;35.13;;
77828;SDS011;67019;51.034;3.728;2023-09-12T09:43:11;61.95;;;33.92;;
77828;SDS011;67019;51.034;3.728;2023-09-12T09:45:44;64.40;;;33.23;;
77828;SDS011;67019;51.034;3.728;2023-09-12T09:48:19;70.30;;;34.67;;
77828;SDS011;67019;51.034;3.728;2023-09-12T09:50:48;59.98;;;34.48;;
77828;SDS011;67019;51.034;3.728;2023-09-12T09:53:17;67.17;;;32.65;;
77828;SDS011;67019;51.034;3.728;2023-09-12T09:55:48;58.73;;;32.80;;
77828;SDS011;67019;51.034;3.728;2023-09-12T09:58:15;54.00;;;30.85;;
77828;SDS011;67019;51.034;3.728;2023-09-12T10:00:43;48.30;;;28.30;;
77828;SDS011;67019;51.034;3.728;2023-09-12T10:03:13;52.95;;;30.35;;
77828;SDS011;67019;51.034;3.728;2023-09-12T10:05:43;56.90;;;29.75;;
77828;SDS011;67019;51.034;3.728;2023-09-12T10:08:11;52.83;;;27.07;;
77828;SDS011;67019;51.034;3.728;2023-09-12T10:10:42;53.48;;;28.83;;
77828;SDS011;67019;51.034;3.728;2023-09-12T10:13:10;54.60;;;30.20;;
77828;SDS011;67019;51.034;3.728;2023-09-12T10:15:40;55.38;;;31.10;;
77828;SDS011;67019;51.034;3.728;2023-09-12T10:18:09;59.70;;;30.35;;
77828;SDS011;67019;51.034;3.728;2023-09-12T10:20:45;54.63;;;30.77;;
77828;SDS011;67019;51.034;3.728;2023-09-12T10:23:30;50.15;;;27.48;;
77828;SDS011;67019;51.034;3.728;2023-09-12T10:26:09;42.78;;;27.22;;
77828;SDS011;67019;51.034;3.728;2023-09-12T10:28:43;56.18;;;29.92;;
77828;SDS011;67019;51.034;3.728;2023-09-12T10:33:36;54.93;;;29.37;;
77828;SDS011;67019;51.034;3.728;2023-09-12T10:36:08;60.33;;;30.12;;
77828;SDS011;67019;51.034;3.728;2023-09-12T10:38:42;50.80;;;33.28;;
77828;SDS011;67019;51.034;3.728;2023-09-12T10:41:12;50.70;;;28.95;;
77828;SDS011;67019;51.034;3.728;2023-09-12T10:43:44;54.18;;;29.95;;
77828;SDS011;67019;51.034;3.728;2023-09-12T10:46:12;54.30;;;30.40;;
77828;SDS011;67019;51.034;3.728;2023-09-12T10:48:42;46.35;;;29.25;;
77828;SDS011;67019;51.034;3.728;2023-09-12T10:51:10;46.23;;;27.80;;
77828;SDS011;67019;51.034;3.728;2023-09-12T10:53:50;48.60;;;27.27;;
77828;SDS011;67019;51.034;3.728;2023-09-12T10:56:21;49.60;;;27.37;;
77828;SDS011;67019;51.034;3.728;2023-09-12T11:01:34;49.53;;;27.58;;
77828;SDS011;67019;51.034;3.728;2023-09-12T11:07:00;52.62;;;29.52;;
77828;SDS011;67019;51.034;3.728;2023-09-12T11:09:27;44.85;;;26.23;;
77828;SDS011;67019;51.034;3.728;2023-09-12T11:11:57;46.73;;;26.60;;
77828;SDS011;67019;51.034;3.728;2023-09-12T11:14:27;36.83;;;24.20;;
77828;SDS011;67019;51.034;3.728;2023-09-12T11:19:45;37.03;;;22.45;;
77828;SDS011;67019;51.034;3.728;2023-09-12T11:22:22;43.23;;;24.80;;
77828;SDS011;67019;51.034;3.728;2023-09-12T11:24:53;45.48;;;26.12;;
77828;SDS011;67019;51.034;3.728;2023-09-12T11:27:23;39.10;;;24.45;;
77828;SDS011;67019;51.034;3.728;2023-09-12T11:30:00;35.95;;;22.40;;
77828;SDS011;67019;51.034;3.728;2023-09-12T11:32:35;34.92;;;22.02;;
77828;SDS011;67019;51.034;3.728;2023-09-12T11:34:58;39.18;;;23.50;;
77828;SDS011;67019;51.034;3.728;2023-09-12T11:37:28;35.98;;;24.18;;
77828;SDS011;67019;51.034;3.728;2023-09-12T11:39:56;40.65;;;26.00;;
77828;SDS011;67019;51.034;3.728;2023-09-12T11:44:53;46.18;;;26.42;;
77828;SDS011;67019;51.034;3.728;2023-09-12T11:47:21;45.15;;;25.82;;
77828;SDS011;67019;51.034;3.728;2023-09-12T11:49:49;51.08;;;28.47;;
77828;SDS011;67019;51.034;3.728;2023-09-12T11:52:17;45.05;;;25.92;;
77828;SDS011;67019;51.034;3.728;2023-09-12T11:54:45;48.78;;;27.13;;
77828;SDS011;67019;51.034;3.728;2023-09-12T11:57:14;45.65;;;26.17;;
77828;SDS011;67019;51.034;3.728;2023-09-12T11:59:44;45.78;;;26.40;;
77828;SDS011;67019;51.034;3.728;2023-09-12T12:02:14;44.63;;;27.05;;
77828;SDS011;67019;51.034;3.728;2023-09-12T12:04:42;43.95;;;24.23;;
77828;SDS011;67019;51.034;3.728;2023-09-12T12:07:10;41.25;;;26.70;;
77828;SDS011;67019;51.034;3.728;2023-09-12T12:09:38;47.05;;;26.40;;
77828;SDS011;67019;51.034;3.728;2023-09-12T12:14:39;41.00;;;25.65;;
77828;SDS011;67019;51.034;3.728;2023-09-12T12:17:08;39.50;;;24.05;;
77828;SDS011;67019;51.034;3.728;2023-09-12T12:19:36;43.92;;;27.20;;
77828;SDS011;67019;51.034;3.728;2023-09-12T12:22:08;44.55;;;25.50;;
77828;SDS011;67019;51.034;3.728;2023-09-12T12:24:41;35.98;;;26.05;;
77828;SDS011;67019;51.034;3.728;2023-09-12T12:27:05;38.42;;;24.65;;
77828;SDS011;67019;51.034;3.728;2023-09-12T12:29:34;38.95;;;25.72;;
77828;SDS011;67019;51.034;3.728;2023-09-12T12:32:03;39.10;;;25.15;;
77828;SDS011;67019;51.034;3.728;2023-09-12T12:34:31;39.15;;;24.45;;
77828;SDS011;67019;51.034;3.728;2023-09-12T12:36:58;39.40;;;23.57;;
77828;SDS011;67019;51.034;3.728;2023-09-12T12:39:26;37.15;;;22.37;;
77828;SDS011;67019;51.034;3.728;2023-09-12T12:41:54;33.35;;;21.15;;
77828;SDS011;67019;51.034;3.728;2023-09-12T12:44:22;44.38;;;25.30;;
77828;SDS011;67019;51.034;3.728;2023-09-12T12:46:54;37.17;;;24.72;;
77828;SDS011;67019;51.034;3.728;2023-09-12T12:49:22;38.05;;;22.90;;
77828;SDS011;67019;51.034;3.728;2023-09-12T12:51:50;37.10;;;23.57;;
77828;SDS011;67019;51.034;3.728;2023-09-12T12:54:21;34.73;;;21.40;;
77828;SDS011;67019;51.034;3.728;2023-09-12T12:56:49;34.35;;;21.60;;
77828;SDS011;67019;51.034;3.728;2023-09-12T12:59:17;34.60;;;23.50;;
77828;SDS011;67019;51.034;3.728;2023-09-12T13:01:44;37.88;;;23.47;;
77828;SDS011;67019;51.034;3.728;2023-09-12T13:04:12;41.85;;;23.67;;
77828;SDS011;67019;51.034;3.728;2023-09-12T13:06:39;37.80;;;24.70;;
77828;SDS011;67019;51.034;3.728;2023-09-12T13:09:07;33.67;;;20.68;;
77828;SDS011;67019;51.034;3.728;2023-09-12T13:11:37;40.35;;;24.18;;
77828;SDS011;67019;51.034;3.728;2023-09-12T13:14:07;34.38;;;21.23;;
77828;SDS011;67019;51.034;3.728;2023-09-12T13:16:37;34.05;;;23.45;;
77828;SDS011;67019;51.034;3.728;2023-09-12T13:19:06;31.30;;;22.93;;
77828;SDS011;67019;51.034;3.728;2023-09-12T13:21:34;33.00;;;22.62;;
77828;SDS011;67019;51.034;3.728;2023-09-12T13:24:04;37.60;;;23.95;;
77828;SDS011;67019;51.034;3.728;2023-09-12T13:26:31;37.00;;;22.90;;
77828;SDS011;67019;51.034;3.728;2023-09-12T13:28:59;37.03;;;23.30;;
77828;SDS011;67019;51.034;3.728;2023-09-12T13:31:27;36.42;;;23.50;;
77828;SDS011;67019;51.034;3.728;2023-09-12T13:33:54;47.08;;;27.58;;
77828;SDS011;67019;51.034;3.728;2023-09-12T13:36:22;35.68;;;23.50;;
77828;SDS011;67019;51.034;3.728;2023-09-12T13:38:49;31.87;;;21.50;;
77828;SDS011;67019;51.034;3.728;2023-09-12T13:41:17;32.00;;;22.10;;
77828;SDS011;67019;51.034;3.728;2023-09-12T13:43:46;32.15;;;21.55;;
77828;SDS011;67019;51.034;3.728;2023-09-12T13:46:14;33.65;;;22.98;;
77828;SDS011;67019;51.034;3.728;2023-09-12T13:48:42;33.98;;;22.85;;
77828;SDS011;67019;51.034;3.728;2023-09-12T13:51:09;37.85;;;23.65;;
77828;SDS011;67019;51.034;3.728;2023-09-12T13:53:38;38.10;;;23.32;;
77828;SDS011;67019;51.034;3.728;2023-09-12T13:56:06;35.50;;;23.45;;
77828;SDS011;67019;51.034;3.728;2023-09-12T13:58:34;32.98;;;22.67;;
77828;SDS011;67019;51.034;3.728;2023-09-12T14:01:01;34.30;;;23.20;;
77828;SDS011;67019;51.034;3.728;2023-09-12T14:03:29;34.83;;;23.65;;
77828;SDS011;67019;51.034;3.728;2023-09-12T14:05:57;37.42;;;22.98;;
77828;SDS011;67019;51.034;3.728;2023-09-12T14:08:24;30.37;;;21.70;;
77828;SDS011;67019;51.034;3.728;2023-09-12T14:10:52;33.55;;;21.42;;
77828;SDS011;67019;51.034;3.728;2023-09-12T14:13:21;27.22;;;18.12;;
77828;SDS011;67019;51.034;3.728;2023-09-12T14:15:49;29.63;;;19.98;;
77828;SDS011;67019;51.034;3.728;2023-09-12T14:18:17;29.32;;;19.07;;
77828;SDS011;67019;51.034;3.728;2023-09-12T14:20:44;29.37;;;19.25;;
77828;SDS011;67019;51.034;3.728;2023-09-12T14:23:12;24.43;;;15.75;;
77828;SDS011;67019;51.034;3.728;2023-09-12T14:25:40;22.35;;;16.30;;
77828;SDS011;67019;51.034;3.728;2023-09-12T14:28:09;24.75;;;17.15;;
77828;SDS011;67019;51.034;3.728;2023-09-12T14:30:37;24.30;;;16.23;;
77828;SDS011;67019;51.034;3.728;2023-09-12T14:33:06;25.35;;;17.02;;
77828;SDS011;67019;51.034;3.728;2023-09-12T14:35:34;26.00;;;17.73;;
77828;SDS011;67019;51.034;3.728;2023-09-12T14:38:02;24.92;;;17.45;;
77828;SDS011;67019;51.034;3.728;2023-09-12T14:40:31;27.97;;;18.57;;
77828;SDS011;67019;51.034;3.728;2023-09-12T14:42:59;24.52;;;17.75;;
77828;SDS011;67019;51.034;3.728;2023-09-12T14:45:29;25.50;;;17.52;;
77828;SDS011;67019;51.034;3.728;2023-09-12T14:47:57;27.77;;;18.15;;
77828;SDS011;67019;51.034;3.728;2023-09-12T14:50:24;35.15;;;20.92;;
77828;SDS011;67019;51.034;3.728;2023-09-12T14:52:53;30.47;;;18.80;;
77828;SDS011;67019;51.034;3.728;2023-09-12T14:55:23;27.75;;;19.17;;
77828;SDS011;67019;51.034;3.728;2023-09-12T14:57:51;27.07;;;17.80;;
77828;SDS011;67019;51.034;3.728;2023-09-12T15:00:20;28.60;;;18.57;;